createdAt,value
2022-08-14T00:01:03.898Z,5.95
2022-08-14T00:03:37.549Z,5.72
2022-08-14T00:06:14.092Z,7.20
2022-08-14T00:08:54.235Z,5.85
2022-08-14T00:11:31.217Z,6.13
2022-08-14T00:14:01.541Z,6.85
2022-08-14T00:16:41.451Z,5.90
2022-08-14T00:19:19.642Z,6.25
2022-08-14T00:21:50.660Z,6.25
2022-08-14T00:24:23.282Z,6.35
2022-08-14T00:26:57.215Z,5.75
2022-08-14T00:29:25.179Z,6.00
2022-08-14T00:31:56.291Z,6.95
2022-08-14T00:34:37.215Z,5.65
2022-08-14T00:37:11.746Z,6.43
2022-08-14T00:39:39.759Z,6.22
2022-08-14T00:42:21.183Z,6.22
2022-08-14T00:44:48.834Z,6.10
2022-08-14T00:47:17.113Z,5.97
2022-08-14T00:49:45.609Z,5.80
2022-08-14T00:52:14.265Z,6.28
2022-08-14T00:54:46.521Z,5.90
2022-08-14T00:57:13.873Z,6.20
2022-08-14T00:59:40.789Z,5.93
2022-08-14T01:02:09.449Z,6.20
2022-08-14T01:04:54.375Z,5.93
2022-08-14T01:07:23.203Z,7.22
2022-08-14T01:09:55.346Z,6.47
2022-08-14T01:12:27.336Z,6.53
2022-08-14T01:15:02.388Z,6.32
2022-08-14T01:17:31.518Z,6.43
2022-08-14T01:19:59.524Z,6.20
2022-08-14T01:22:26.775Z,6.10
2022-08-14T01:24:53.919Z,6.78
2022-08-14T01:27:24.131Z,6.38
2022-08-14T01:30:01.258Z,5.75
2022-08-14T01:32:35.560Z,6.15
2022-08-14T01:35:18.267Z,6.93
2022-08-14T01:37:58.713Z,6.30
2022-08-14T01:40:36.765Z,6.18
2022-08-14T01:43:12.507Z,6.50
2022-08-14T01:45:41.086Z,6.55
2022-08-14T01:48:13.510Z,6.63
2022-08-14T01:50:42.569Z,6.60
2022-08-14T01:53:10.550Z,6.43
2022-08-14T01:55:40.305Z,6.90
2022-08-14T01:58:19.628Z,6.38
2022-08-14T02:00:51.859Z,6.90
2022-08-14T02:03:18.684Z,6.60
2022-08-14T02:05:49.034Z,7.28
2022-08-14T02:08:16.156Z,7.40
2022-08-14T02:10:49.467Z,7.05
2022-08-14T02:13:18.499Z,7.43
2022-08-14T02:15:48.665Z,7.65
2022-08-14T02:18:18.277Z,8.40
2022-08-14T02:20:45.640Z,7.60
2022-08-14T02:23:14.266Z,8.10
2022-08-14T02:25:42.177Z,7.85
2022-08-14T02:28:23.243Z,8.32
2022-08-14T02:30:56.828Z,7.78
2022-08-14T02:33:23.863Z,8.20
2022-08-14T02:35:53.570Z,7.63
2022-08-14T02:38:30.171Z,7.65
2022-08-14T02:40:58.525Z,8.18
2022-08-14T02:43:25.794Z,8.30
2022-08-14T02:46:06.588Z,8.63
2022-08-14T02:49:03.523Z,7.57
2022-08-14T02:51:30.460Z,7.60
2022-08-14T02:53:57.340Z,8.25
2022-08-14T02:56:29.518Z,8.55
2022-08-14T02:59:00.259Z,8.18
2022-08-14T03:01:31.459Z,8.43
2022-08-14T03:04:13.153Z,8.35
2022-08-14T03:07:06.787Z,8.40
2022-08-14T03:09:42.346Z,8.60
2022-08-14T03:12:17.911Z,9.98
2022-08-14T03:14:59.287Z,8.57
2022-08-14T03:17:26.326Z,8.70
2022-08-14T03:19:58.352Z,8.55
2022-08-14T03:22:27.819Z,8.68
2022-08-14T03:24:56.700Z,8.90
2022-08-14T03:27:23.554Z,8.32
2022-08-14T03:29:53.315Z,9.35
2022-08-14T03:32:19.892Z,9.07
2022-08-14T03:34:58.590Z,8.20
2022-08-14T03:37:39.108Z,8.77
2022-08-14T03:40:17.570Z,9.07
2022-08-14T03:42:45.409Z,8.95
2022-08-14T03:45:26.134Z,9.15
2022-08-14T03:48:01.646Z,8.88
2022-08-14T03:50:31.591Z,10.77
2022-08-14T03:53:03.429Z,8.52
2022-08-14T03:55:31.044Z,8.98
2022-08-14T03:57:58.457Z,9.35
2022-08-14T04:00:43.903Z,9.88
2022-08-14T04:03:18.038Z,9.60
2022-08-14T04:05:50.373Z,10.07
2022-08-14T04:08:29.243Z,9.35
2022-08-14T04:10:57.455Z,9.65
2022-08-14T04:13:24.657Z,10.27
2022-08-14T04:15:56.778Z,9.50
2022-08-14T04:18:28.462Z,9.70
2022-08-14T04:20:55.940Z,10.23
2022-08-14T04:23:30.009Z,11.02
2022-08-14T04:26:04.136Z,10.25
2022-08-14T04:29:07.190Z,9.27
2022-08-14T04:32:56.420Z,9.40
2022-08-14T04:34:07.896Z,9.77
2022-08-14T04:36:35.194Z,10.07
2022-08-14T04:39:02.978Z,9.02
2022-08-14T04:41:30.589Z,9.68
2022-08-14T04:43:57.823Z,9.43
2022-08-14T04:46:57.063Z,9.70
2022-08-14T04:49:11.470Z,10.25
2022-08-14T04:51:56.038Z,9.32
2022-08-14T04:54:27.329Z,9.90
2022-08-14T04:56:55.650Z,9.70
2022-08-14T04:59:23.568Z,11.02
2022-08-14T05:01:53.985Z,8.75
2022-08-14T05:04:23.522Z,9.32
2022-08-14T05:06:54.205Z,8.90
2022-08-14T05:09:23.272Z,8.80
2022-08-14T05:11:49.976Z,9.40
2022-08-14T05:14:46.905Z,9.82
2022-08-14T05:17:06.822Z,9.10
2022-08-14T05:19:33.667Z,9.43
2022-08-14T05:22:17.544Z,8.00
2022-08-14T05:24:49.598Z,8.85
2022-08-14T05:27:19.402Z,8.52
2022-08-14T05:29:46.555Z,8.20
2022-08-14T05:32:14.194Z,8.75
2022-08-14T05:34:41.731Z,8.23
2022-08-14T05:37:12.579Z,9.43
2022-08-14T05:39:41.970Z,9.10
2022-08-14T05:42:09.859Z,9.15
2022-08-14T05:44:48.515Z,9.23
2022-08-14T05:47:16.063Z,9.27
2022-08-14T05:49:43.695Z,7.93
2022-08-14T05:52:10.847Z,8.30
2022-08-14T05:54:44.647Z,8.32
2022-08-14T05:57:11.296Z,8.10
2022-08-14T05:59:39.705Z,8.15
2022-08-14T06:02:11.060Z,8.05
2022-08-14T06:04:39.553Z,8.65
2022-08-14T06:07:06.565Z,8.75
2022-08-14T06:09:35.912Z,9.07
2022-08-14T06:12:11.997Z,8.80
2022-08-14T06:14:39.431Z,10.13
2022-08-14T06:17:06.667Z,9.82
2022-08-14T06:19:33.412Z,8.80
2022-08-14T06:22:00.117Z,8.73
2022-08-14T06:24:30.477Z,8.77
2022-08-14T06:27:04.625Z,9.60
2022-08-14T06:29:34.769Z,9.38
2022-08-14T06:32:52.507Z,8.75
2022-08-14T06:35:09.432Z,9.40
2022-08-14T06:37:46.912Z,8.05
2022-08-14T06:40:26.215Z,8.00
2022-08-14T06:43:09.969Z,8.90
2022-08-14T06:45:39.335Z,8.95
2022-08-14T06:48:17.140Z,7.55
2022-08-14T06:50:45.437Z,8.52
2022-08-14T06:53:14.711Z,9.18
2022-08-14T06:55:58.192Z,9.35
2022-08-14T06:58:29.212Z,9.13
2022-08-14T07:00:57.937Z,8.63
2022-08-14T07:03:24.832Z,9.02
2022-08-14T07:05:57.975Z,9.02
2022-08-14T07:08:29.515Z,9.32
2022-08-14T07:11:01.714Z,8.40
2022-08-14T07:13:30.617Z,9.70
2022-08-14T07:16:00.702Z,8.25
2022-08-14T07:18:34.018Z,9.40
2022-08-14T07:21:02.560Z,9.63
2022-08-14T07:23:31.065Z,9.60
2022-08-14T07:26:00.076Z,9.90
2022-08-14T07:28:30.219Z,9.57
2022-08-14T07:31:05.303Z,9.00
2022-08-14T07:33:50.238Z,9.77
2022-08-14T07:36:27.930Z,9.18
2022-08-14T07:38:59.465Z,9.35
2022-08-14T07:41:33.702Z,9.80
2022-08-14T07:44:28.932Z,9.13
2022-08-14T07:46:48.498Z,9.25
2022-08-14T07:49:18.233Z,9.20
2022-08-14T07:51:45.913Z,9.00
2022-08-14T07:54:23.109Z,8.32
2022-08-14T07:57:00.856Z,8.30
2022-08-14T07:59:40.984Z,8.77
2022-08-14T08:02:18.657Z,8.10
2022-08-14T08:04:50.161Z,8.23
2022-08-14T08:07:17.115Z,9.15
2022-08-14T08:09:55.452Z,8.45
2022-08-14T08:12:28.002Z,8.80
2022-08-14T08:15:03.469Z,9.52
2022-08-14T08:17:38.734Z,8.00
2022-08-14T08:20:15.595Z,7.95
2022-08-14T08:22:48.074Z,7.78
2022-08-14T08:25:18.137Z,7.43
2022-08-14T08:28:08.359Z,8.23
2022-08-14T08:30:37.920Z,7.30
2022-08-14T08:33:17.095Z,7.75
2022-08-14T08:35:50.852Z,7.88
2022-08-14T08:39:18.871Z,7.00
2022-08-14T08:41:11.424Z,7.65
2022-08-14T08:43:39.699Z,7.45
2022-08-14T08:46:23.360Z,6.93
2022-08-14T08:51:30.710Z,6.82
2022-08-14T08:54:14.966Z,7.15
2022-08-14T08:56:51.870Z,6.70
2022-08-14T08:59:27.315Z,6.68
2022-08-14T09:02:05.158Z,7.13
2022-08-14T09:04:45.292Z,7.10
2022-08-14T09:07:28.294Z,7.32
2022-08-14T09:10:00.152Z,7.22
2022-08-14T09:12:33.195Z,7.00
2022-08-14T09:15:12.243Z,6.70
2022-08-14T09:17:41.561Z,6.85
2022-08-14T09:20:11.526Z,6.53
2022-08-14T09:22:47.485Z,7.57
2022-08-14T09:25:16.492Z,6.97
2022-08-14T09:27:43.848Z,7.20
2022-08-14T09:30:31.504Z,7.00
2022-08-14T09:33:04.823Z,6.80
2022-08-14T09:35:49.681Z,8.50
2022-08-14T09:38:40.595Z,6.50
2022-08-14T09:42:17.437Z,6.22
2022-08-14T09:44:54.147Z,6.53
2022-08-14T09:47:21.388Z,6.40
2022-08-14T09:49:53.296Z,6.45
2022-08-14T09:52:32.666Z,6.28
2022-08-14T09:55:17.359Z,7.13
2022-08-14T09:57:51.599Z,6.10
2022-08-14T10:00:42.080Z,5.28
2022-08-14T10:03:09.576Z,5.65
2022-08-14T10:05:39.366Z,5.60
2022-08-14T10:08:25.286Z,6.53
2022-08-14T10:10:57.042Z,5.88
2022-08-14T10:13:29.350Z,5.15
2022-08-14T10:16:26.089Z,5.13
2022-08-14T10:19:07.607Z,4.47
2022-08-14T10:21:58.281Z,4.72
2022-08-14T10:24:37.290Z,4.75
2022-08-14T10:27:05.152Z,4.80
2022-08-14T10:29:38.898Z,4.72
2022-08-14T10:32:17.771Z,5.10
2022-08-14T10:34:46.983Z,6.50
2022-08-14T10:37:20.120Z,4.90
2022-08-14T10:40:10.650Z,5.22
2022-08-14T10:42:48.340Z,5.60
2022-08-14T10:45:35.399Z,5.60
2022-08-14T10:48:24.431Z,4.90
2022-08-14T10:51:02.861Z,5.00
2022-08-14T10:53:35.797Z,4.68
2022-08-14T10:56:21.537Z,4.88
2022-08-14T10:59:08.153Z,4.68
2022-08-14T11:01:41.454Z,4.47
2022-08-14T11:04:26.017Z,4.80
2022-08-14T11:06:57.986Z,4.70
2022-08-14T11:09:25.985Z,5.03
2022-08-14T11:11:56.543Z,4.78
2022-08-14T11:14:51.124Z,5.60
2022-08-14T11:17:27.783Z,5.15
2022-08-14T11:20:00.177Z,5.38
2022-08-14T11:22:52.598Z,5.28
2022-08-14T11:25:16.734Z,4.85
2022-08-14T11:27:45.774Z,5.20
2022-08-14T11:30:50.076Z,5.22
2022-08-14T11:33:09.361Z,5.18
2022-08-14T11:35:47.854Z,5.22
2022-08-14T11:38:17.030Z,4.97
2022-08-14T11:40:47.157Z,5.18
2022-08-14T11:43:15.094Z,6.53
2022-08-14T11:45:47.806Z,5.00
2022-08-14T11:49:02.642Z,4.95
2022-08-14T11:51:19.741Z,5.40
2022-08-14T11:54:05.513Z,5.18
2022-08-14T11:56:37.339Z,6.32
2022-08-14T11:59:07.142Z,5.20
2022-08-14T12:01:38.069Z,5.10
2022-08-14T12:04:31.701Z,5.70
2022-08-14T12:06:59.617Z,5.45
2022-08-14T12:09:32.672Z,9.18
2022-08-14T12:12:01.204Z,5.28
2022-08-14T12:14:30.873Z,5.80
2022-08-14T12:17:05.612Z,5.45
2022-08-14T12:19:51.555Z,5.93
2022-08-14T12:22:40.137Z,6.03
2022-08-14T12:25:19.743Z,6.18
2022-08-14T12:27:53.353Z,5.80
2022-08-14T12:30:42.458Z,5.63
2022-08-14T12:33:46.898Z,5.60
2022-08-14T12:36:21.189Z,5.80
2022-08-14T12:38:48.743Z,5.38
2022-08-14T12:41:24.123Z,6.05
2022-08-14T12:44:00.562Z,6.63
2022-08-14T12:46:35.995Z,5.70
2022-08-14T12:49:10.993Z,5.53
2022-08-14T12:51:38.119Z,5.15
2022-08-14T12:54:27.441Z,5.50
2022-08-14T12:57:18.968Z,5.40
2022-08-14T12:59:47.305Z,5.28
2022-08-14T13:02:26.397Z,5.07
2022-08-14T13:04:57.117Z,5.18
2022-08-14T13:07:26.946Z,4.53
2022-08-14T13:10:00.250Z,4.80
2022-08-14T13:12:31.820Z,4.90
2022-08-14T13:15:09.676Z,5.63
2022-08-14T13:17:51.198Z,5.07
2022-08-14T13:20:24.564Z,4.97
2022-08-14T13:22:53.617Z,5.15
2022-08-14T13:25:24.278Z,4.90
2022-08-14T13:27:54.552Z,4.90
2022-08-14T13:30:24.390Z,4.53
2022-08-14T13:32:53.964Z,5.43
2022-08-14T13:35:22.876Z,5.38
2022-08-14T13:37:52.385Z,4.63
2022-08-14T13:40:26.705Z,7.82
2022-08-14T13:42:54.735Z,5.40
2022-08-14T13:45:23.866Z,5.45
2022-08-14T13:48:00.899Z,5.13
2022-08-14T13:50:27.667Z,5.05
2022-08-14T13:52:59.563Z,5.35
2022-08-14T13:55:29.043Z,5.60
2022-08-14T13:58:03.605Z,5.53
2022-08-14T14:00:53.160Z,5.30
2022-08-14T14:03:24.699Z,5.35
2022-08-14T14:05:55.153Z,6.15
2022-08-14T14:08:43.645Z,5.78
2022-08-14T14:11:11.371Z,10.60
2022-08-14T14:13:44.685Z,5.80
2022-08-14T14:16:15.083Z,5.05
2022-08-14T14:18:46.132Z,7.78
2022-08-14T14:21:14.075Z,5.75
2022-08-14T14:23:42.167Z,5.63
2022-08-14T14:26:13.721Z,5.43
2022-08-14T14:28:42.612Z,5.60
2022-08-14T14:31:11.110Z,5.75
2022-08-14T14:33:46.782Z,5.80
2022-08-14T14:36:20.875Z,5.35
2022-08-14T14:38:53.588Z,5.70
2022-08-14T14:41:23.140Z,6.05
2022-08-14T14:43:51.484Z,4.93
2022-08-14T14:46:21.023Z,5.60
2022-08-14T14:48:54.095Z,5.88
2022-08-14T14:51:21.759Z,6.28
2022-08-14T14:53:48.372Z,5.50
2022-08-14T14:56:50.949Z,6.45
2022-08-14T14:59:02.054Z,5.38
2022-08-14T15:01:28.733Z,5.30
2022-08-14T15:03:56.753Z,5.65
2022-08-14T15:06:29.027Z,5.53
2022-08-14T15:08:59.974Z,5.07
2022-08-14T15:11:30.093Z,5.72
2022-08-14T15:13:57.374Z,7.50
2022-08-14T15:16:24.872Z,6.07
2022-08-14T15:18:51.642Z,5.65
2022-08-14T15:21:20.119Z,6.07
2022-08-14T15:23:46.712Z,6.65
2022-08-14T15:26:23.899Z,5.13
2022-08-14T15:29:07.631Z,5.32
2022-08-14T15:31:36.187Z,7.13
2022-08-14T15:34:43.803Z,7.22
2022-08-14T15:36:50.758Z,5.60
2022-08-14T15:39:17.519Z,5.88
2022-08-14T15:41:45.265Z,5.32
2022-08-14T15:44:25.224Z,6.30
2022-08-14T15:46:54.023Z,5.45
2022-08-14T15:49:22.935Z,5.93
2022-08-14T15:51:50.989Z,5.65
2022-08-14T15:54:17.814Z,5.05
2022-08-14T15:57:05.786Z,5.68
2022-08-14T15:59:36.026Z,5.75
2022-08-14T16:02:02.721Z,5.30
2022-08-14T16:04:29.527Z,5.65
2022-08-14T16:06:56.844Z,5.30
2022-08-14T16:09:23.449Z,5.57
2022-08-14T16:11:53.747Z,5.50
2022-08-14T16:14:21.886Z,5.70
2022-08-14T16:17:00.321Z,5.03
2022-08-14T16:19:29.381Z,5.43
2022-08-14T16:22:57.013Z,5.68
2022-08-14T16:25:00.134Z,5.30
2022-08-14T16:27:39.358Z,5.57
2022-08-14T16:30:24.622Z,4.95
2022-08-14T16:32:57.022Z,5.32
2022-08-14T16:35:41.897Z,5.07
2022-08-14T16:38:19.635Z,5.15
2022-08-14T16:41:06.568Z,5.05
2022-08-14T16:43:33.555Z,5.22
2022-08-14T16:46:00.575Z,5.10
2022-08-14T16:48:54.727Z,6.88
2022-08-14T16:51:15.058Z,5.30
2022-08-14T16:53:42.316Z,5.32
2022-08-14T16:56:23.438Z,4.97
2022-08-14T16:59:04.944Z,5.30
2022-08-14T17:01:31.942Z,4.70
2022-08-14T17:04:06.501Z,5.10
2022-08-14T17:06:38.140Z,4.90
2022-08-14T17:09:08.050Z,5.22
2022-08-14T17:11:54.582Z,5.53
2022-08-14T17:14:23.178Z,5.18
2022-08-14T17:16:56.887Z,5.45
2022-08-14T17:19:24.754Z,5.85
2022-08-14T17:21:52.813Z,5.68
2022-08-14T17:25:02.923Z,6.50
2022-08-14T17:27:08.689Z,4.70
2022-08-14T17:29:55.941Z,7.53
2022-08-14T17:32:29.356Z,5.60
2022-08-14T17:35:16.398Z,5.18
2022-08-14T17:37:47.402Z,6.10
2022-08-14T17:40:24.101Z,5.35
2022-08-14T17:42:55.018Z,7.30
2022-08-14T17:45:42.686Z,6.05
2022-08-14T17:49:14.062Z,5.30
2022-08-14T17:51:24.013Z,5.72
2022-08-14T17:54:01.243Z,6.38
2022-08-14T17:56:33.042Z,8.73
2022-08-14T17:59:07.368Z,6.05
2022-08-14T18:01:39.485Z,5.80
2022-08-14T18:04:24.746Z,6.75
2022-08-14T18:06:58.847Z,5.05
2022-08-14T18:09:56.919Z,6.93
2022-08-14T18:12:37.059Z,5.45
2022-08-14T18:15:16.147Z,6.28
2022-08-14T18:17:54.098Z,5.35
2022-08-14T18:21:43.112Z,5.75
2022-08-14T18:23:14.624Z,5.75
2022-08-14T18:25:54.504Z,7.07
2022-08-14T18:28:50.984Z,6.68
2022-08-14T18:31:24.389Z,6.15
2022-08-14T18:33:57.172Z,6.85
2022-08-14T18:37:09.631Z,6.05
2022-08-14T18:40:02.018Z,7.65
2022-08-14T18:42:34.918Z,7.75
2022-08-14T18:45:02.118Z,8.57
2022-08-14T18:48:51.733Z,7.72
2022-08-14T18:51:46.246Z,10.52
2022-08-14T18:54:32.828Z,6.68
2022-08-14T18:57:03.091Z,6.88
2022-08-14T18:59:35.441Z,8.23
2022-08-14T19:02:30.220Z,6.50
2022-08-14T19:04:59.655Z,6.72
2022-08-14T19:07:29.610Z,8.25
2022-08-14T19:10:07.423Z,7.05
2022-08-14T19:12:52.732Z,10.25
2022-08-14T19:15:35.035Z,7.78
2022-08-14T19:18:27.921Z,8.55
2022-08-14T19:21:18.250Z,7.35
2022-08-14T19:24:44.212Z,7.50
2022-08-14T19:27:19.268Z,8.38
2022-08-14T19:29:51.386Z,7.43
2022-08-14T19:32:36.482Z,7.57
2022-08-14T19:35:17.323Z,7.50
2022-08-14T19:37:47.792Z,7.28
2022-08-14T19:40:38.949Z,9.70
2022-08-14T19:43:56.582Z,7.45
2022-08-14T19:46:39.528Z,7.00
2022-08-14T19:49:06.651Z,8.07
2022-08-14T19:51:41.938Z,6.32
2022-08-14T19:54:13.522Z,6.60
2022-08-14T19:56:49.030Z,7.63
2022-08-14T19:59:25.776Z,7.10
2022-08-14T20:02:06.817Z,6.43
2022-08-14T20:04:45.820Z,6.28
2022-08-14T20:07:59.135Z,6.47
2022-08-14T20:11:06.479Z,6.63
2022-08-14T20:13:24.869Z,5.72
2022-08-14T20:16:12.423Z,6.72
2022-08-14T20:18:50.082Z,5.75
2022-08-14T20:21:18.581Z,6.00
2022-08-14T20:23:47.994Z,6.85
2022-08-14T20:26:31.293Z,5.40
2022-08-14T20:29:05.049Z,5.57
2022-08-14T20:31:42.383Z,5.78
2022-08-14T20:34:19.031Z,6.05
2022-08-14T20:37:10.369Z,5.47
2022-08-14T20:39:40.056Z,5.40
2022-08-14T20:42:19.329Z,5.22
2022-08-14T20:44:59.130Z,7.13
2022-08-14T20:48:00.864Z,6.45
2022-08-14T20:50:46.090Z,10.77
2022-08-14T20:53:28.830Z,5.30
2022-08-14T20:56:28.160Z,5.82
2022-08-14T20:58:50.561Z,5.78
2022-08-14T21:01:17.577Z,5.80
2022-08-14T21:03:56.247Z,5.25
2022-08-14T21:06:30.542Z,5.30
2022-08-14T21:09:17.615Z,5.40
2022-08-14T21:11:51.482Z,5.97
2022-08-14T21:14:34.160Z,5.72
2022-08-14T21:17:00.962Z,6.35
2022-08-14T21:19:30.821Z,5.00
2022-08-14T21:21:58.851Z,5.22
2022-08-14T21:24:46.971Z,4.75
2022-08-14T21:27:19.776Z,5.30
2022-08-14T21:29:55.441Z,5.45
2022-08-14T21:32:29.260Z,6.25
2022-08-14T21:35:08.078Z,5.60
2022-08-14T21:37:40.793Z,7.07
2022-08-14T21:40:40.806Z,5.07
2022-08-14T21:42:55.330Z,4.78
2022-08-14T21:45:22.154Z,5.30
2022-08-14T21:47:48.779Z,5.75
2022-08-14T21:50:39.568Z,5.25
2022-08-14T21:53:06.786Z,5.18
2022-08-14T21:55:37.406Z,5.57
2022-08-14T21:58:53.182Z,5.20
2022-08-14T22:00:52.223Z,5.15
2022-08-14T22:03:24.268Z,5.82
2022-08-14T22:05:56.904Z,6.20
2022-08-14T22:08:26.641Z,4.80
2022-08-14T22:10:59.151Z,5.50
2022-08-14T22:13:27.515Z,5.28
2022-08-14T22:16:02.008Z,5.10
2022-08-14T22:18:29.837Z,5.20
2022-08-14T22:20:56.922Z,5.30
2022-08-14T22:23:32.596Z,4.53
2022-08-14T22:26:03.315Z,5.22
2022-08-14T22:28:34.087Z,5.30
2022-08-14T22:31:10.518Z,5.40
2022-08-14T22:33:51.317Z,4.70
2022-08-14T22:36:48.604Z,6.15
2022-08-14T22:40:17.163Z,5.05
2022-08-14T22:42:21.464Z,4.93
2022-08-14T22:44:51.998Z,5.03
2022-08-14T22:47:25.004Z,5.20
2022-08-14T22:50:29.253Z,4.95
2022-08-14T22:52:38.855Z,5.05
2022-08-14T22:55:07.440Z,5.18
2022-08-14T22:57:37.935Z,5.47
2022-08-14T23:00:17.141Z,5.38
2022-08-14T23:02:44.737Z,5.32
2022-08-14T23:05:11.444Z,4.95
2022-08-14T23:08:58.527Z,5.50
2022-08-14T23:10:33.828Z,5.70
2022-08-14T23:13:03.686Z,5.25
2022-08-14T23:15:30.657Z,5.45
2022-08-14T23:17:57.957Z,4.90
2022-08-14T23:20:29.291Z,4.95
2022-08-14T23:22:57.754Z,5.40
2022-08-14T23:25:56.994Z,5.50
2022-08-14T23:28:34.909Z,6.00
2022-08-14T23:31:08.539Z,5.07
2022-08-14T23:33:46.099Z,5.65
2022-08-14T23:36:28.543Z,5.43
2022-08-14T23:38:59.635Z,5.10
2022-08-14T23:41:26.607Z,5.55
2022-08-14T23:44:14.788Z,5.30
2022-08-14T23:46:41.851Z,5.63
2022-08-14T23:49:12.599Z,5.18
2022-08-14T23:51:39.279Z,5.43
2022-08-14T23:54:06.149Z,7.38
2022-08-14T23:57:02.392Z,5.53
2022-08-14T23:59:31.704Z,5.55
